sensor_id;sensor_type;location;lat;lon;timestamp;P1;durP1;ratioP1;P2;durP2;ratioP2
20857;SDS011;10589;53.636;10.012;2023-07-08T03:45:26;12.03;;;7.13;;
20857;SDS011;10589;53.636;10.012;2023-07-08T03:47:53;11.30;;;7.13;;
20857;SDS011;10589;53.636;10.012;2023-07-08T03:50:23;10.10;;;7.40;;
20857;SDS011;10589;53.636;10.012;2023-07-08T03:52:50;11.07;;;7.07;;
20857;SDS011;10589;53.636;10.012;2023-07-08T03:55:17;8.60;;;6.63;;
20857;SDS011;10589;53.636;10.012;2023-07-08T03:57:43;7.80;;;6.70;;
20857;SDS011;10589;53.636;10.012;2023-07-08T04:00:09;8.83;;;6.80;;
20857;SDS011;10589;53.636;10.012;2023-07-08T04:02:37;10.50;;;7.23;;
20857;SDS011;10589;53.636;10.012;2023-07-08T04:05:04;7.53;;;6.60;;
20857;SDS011;10589;53.636;10.012;2023-07-08T04:07:31;8.67;;;6.70;;
20857;SDS011;10589;53.636;10.012;2023-07-08T04:09:57;9.17;;;6.10;;
20857;SDS011;10589;53.636;10.012;2023-07-08T04:12:22;8.97;;;6.07;;
20857;SDS011;10589;53.636;10.012;2023-07-08T04:14:48;7.83;;;6.60;;
20857;SDS011;10589;53.636;10.012;2023-07-08T04:17:14;8.80;;;6.20;;
20857;SDS011;10589;53.636;10.012;2023-07-08T04:19:40;8.57;;;6.33;;
20857;SDS011;10589;53.636;10.012;2023-07-08T04:22:09;7.63;;;6.17;;
20857;SDS011;10589;53.636;10.012;2023-07-08T04:24:35;6.90;;;6.30;;
20857;SDS011;10589;53.636;10.012;2023-07-08T04:27:01;7.13;;;5.87;;
20857;SDS011;10589;53.636;10.012;2023-07-08T04:29:27;7.03;;;4.97;;
20857;SDS011;10589;53.636;10.012;2023-07-08T04:31:53;9.70;;;5.30;;
20857;SDS011;10589;53.636;10.012;2023-07-08T04:34:18;6.10;;;5.50;;
20857;SDS011;10589;53.636;10.012;2023-07-08T04:36:45;6.90;;;5.13;;
20857;SDS011;10589;53.636;10.012;2023-07-08T04:39:11;5.78;;;5.00;;
20857;SDS011;10589;53.636;10.012;2023-07-08T04:41:38;8.23;;;5.50;;
20857;SDS011;10589;53.636;10.012;2023-07-08T04:44:06;5.83;;;5.07;;
20857;SDS011;10589;53.636;10.012;2023-07-08T04:49:19;5.20;;;4.70;;
20857;SDS011;10589;53.636;10.012;2023-07-08T04:51:45;6.13;;;3.97;;
20857;SDS011;10589;53.636;10.012;2023-07-08T04:54:12;10.07;;;5.07;;
20857;SDS011;10589;53.636;10.012;2023-07-08T04:56:39;6.03;;;4.70;;
20857;SDS011;10589;53.636;10.012;2023-07-08T04:59:11;9.30;;;4.90;;
20857;SDS011;10589;53.636;10.012;2023-07-08T05:01:38;5.10;;;4.13;;
20857;SDS011;10589;53.636;10.012;2023-07-08T05:04:04;5.20;;;4.22;;
20857;SDS011;10589;53.636;10.012;2023-07-08T05:06:31;4.82;;;4.18;;
20857;SDS011;10589;53.636;10.012;2023-07-08T05:08:58;6.05;;;4.10;;
20857;SDS011;10589;53.636;10.012;2023-07-08T05:11:24;5.32;;;3.78;;
20857;SDS011;10589;53.636;10.012;2023-07-08T05:13:50;4.60;;;3.75;;
20857;SDS011;10589;53.636;10.012;2023-07-08T05:16:16;6.60;;;3.80;;
20857;SDS011;10589;53.636;10.012;2023-07-08T05:18:42;5.45;;;3.72;;
20857;SDS011;10589;53.636;10.012;2023-07-08T05:21:08;5.05;;;3.90;;
20857;SDS011;10589;53.636;10.012;2023-07-08T05:23:35;4.35;;;3.45;;
20857;SDS011;10589;53.636;10.012;2023-07-08T05:26:01;4.25;;;3.25;;
20857;SDS011;10589;53.636;10.012;2023-07-08T05:28:27;4.10;;;3.28;;
20857;SDS011;10589;53.636;10.012;2023-07-08T05:30:53;3.80;;;3.08;;
20857;SDS011;10589;53.636;10.012;2023-07-08T05:33:20;4.65;;;3.75;;
20857;SDS011;10589;53.636;10.012;2023-07-08T05:35:47;6.03;;;3.03;;
20857;SDS011;10589;53.636;10.012;2023-07-08T05:38:12;3.85;;;3.00;;
20857;SDS011;10589;53.636;10.012;2023-07-08T05:40:38;4.85;;;3.35;;
20857;SDS011;10589;53.636;10.012;2023-07-08T05:43:03;4.80;;;3.25;;
20857;SDS011;10589;53.636;10.012;2023-07-08T05:45:29;3.28;;;2.97;;
20857;SDS011;10589;53.636;10.012;2023-07-08T05:47:55;3.20;;;2.60;;
20857;SDS011;10589;53.636;10.012;2023-07-08T05:50:21;6.75;;;3.00;;
20857;SDS011;10589;53.636;10.012;2023-07-08T05:52:46;7.05;;;2.78;;
20857;SDS011;10589;53.636;10.012;2023-07-08T05:55:12;3.97;;;2.65;;
20857;SDS011;10589;53.636;10.012;2023-07-08T05:57:37;3.47;;;2.50;;
20857;SDS011;10589;53.636;10.012;2023-07-08T06:00:04;3.67;;;2.70;;
20857;SDS011;10589;53.636;10.012;2023-07-08T06:02:31;5.00;;;2.72;;
20857;SDS011;10589;53.636;10.012;2023-07-08T06:04:56;4.80;;;2.70;;
20857;SDS011;10589;53.636;10.012;2023-07-08T06:07:22;7.72;;;2.38;;
20857;SDS011;10589;53.636;10.012;2023-07-08T06:09:47;5.18;;;2.60;;
20857;SDS011;10589;53.636;10.012;2023-07-08T06:12:13;6.50;;;2.63;;
20857;SDS011;10589;53.636;10.012;2023-07-08T06:14:38;4.75;;;2.70;;
20857;SDS011;10589;53.636;10.012;2023-07-08T06:17:04;4.63;;;2.50;;
20857;SDS011;10589;53.636;10.012;2023-07-08T06:19:30;3.47;;;2.45;;
20857;SDS011;10589;53.636;10.012;2023-07-08T06:21:57;4.88;;;2.55;;
20857;SDS011;10589;53.636;10.012;2023-07-08T06:24:22;5.20;;;2.75;;
20857;SDS011;10589;53.636;10.012;2023-07-08T06:26:48;5.97;;;3.00;;
20857;SDS011;10589;53.636;10.012;2023-07-08T06:29:14;2.90;;;2.47;;
20857;SDS011;10589;53.636;10.012;2023-07-08T06:31:40;4.85;;;2.70;;
20857;SDS011;10589;53.636;10.012;2023-07-08T06:34:06;6.32;;;2.70;;
20857;SDS011;10589;53.636;10.012;2023-07-08T06:36:32;5.60;;;1.90;;
20857;SDS011;10589;53.636;10.012;2023-07-08T06:38:57;3.58;;;2.42;;
20857;SDS011;10589;53.636;10.012;2023-07-08T06:41:25;10.45;;;2.40;;
20857;SDS011;10589;53.636;10.012;2023-07-08T06:43:50;3.25;;;2.13;;
20857;SDS011;10589;53.636;10.012;2023-07-08T06:46:16;2.97;;;2.38;;
20857;SDS011;10589;53.636;10.012;2023-07-08T06:48:43;3.95;;;2.28;;
20857;SDS011;10589;53.636;10.012;2023-07-08T06:51:09;4.05;;;2.40;;
20857;SDS011;10589;53.636;10.012;2023-07-08T06:53:34;7.22;;;2.70;;
20857;SDS011;10589;53.636;10.012;2023-07-08T06:56:00;3.20;;;2.47;;
20857;SDS011;10589;53.636;10.012;2023-07-08T06:58:27;5.53;;;2.05;;
20857;SDS011;10589;53.636;10.012;2023-07-08T07:00:53;2.35;;;1.98;;
20857;SDS011;10589;53.636;10.012;2023-07-08T07:03:18;4.72;;;2.35;;
20857;SDS011;10589;53.636;10.012;2023-07-08T07:05:44;2.63;;;2.28;;
20857;SDS011;10589;53.636;10.012;2023-07-08T07:08:10;5.35;;;2.33;;
20857;SDS011;10589;53.636;10.012;2023-07-08T07:10:35;3.63;;;2.22;;
20857;SDS011;10589;53.636;10.012;2023-07-08T07:13:01;3.08;;;1.85;;
20857;SDS011;10589;53.636;10.012;2023-07-08T07:15:27;4.60;;;2.00;;
20857;SDS011;10589;53.636;10.012;2023-07-08T07:17:55;3.63;;;1.80;;
20857;SDS011;10589;53.636;10.012;2023-07-08T07:20:21;4.38;;;2.30;;
20857;SDS011;10589;53.636;10.012;2023-07-08T07:22:47;3.17;;;1.77;;
20857;SDS011;10589;53.636;10.012;2023-07-08T07:25:12;5.63;;;2.35;;
20857;SDS011;10589;53.636;10.012;2023-07-08T07:27:38;3.40;;;1.98;;
20857;SDS011;10589;53.636;10.012;2023-07-08T07:30:04;4.18;;;2.15;;
20857;SDS011;10589;53.636;10.012;2023-07-08T07:32:30;5.63;;;2.17;;
20857;SDS011;10589;53.636;10.012;2023-07-08T07:34:57;3.30;;;1.92;;
20857;SDS011;10589;53.636;10.012;2023-07-08T07:37:24;2.65;;;1.90;;
20857;SDS011;10589;53.636;10.012;2023-07-08T07:39:50;2.83;;;1.85;;
20857;SDS011;10589;53.636;10.012;2023-07-08T07:42:16;8.98;;;2.30;;
20857;SDS011;10589;53.636;10.012;2023-07-08T07:44:43;3.53;;;1.73;;
20857;SDS011;10589;53.636;10.012;2023-07-08T07:47:10;4.35;;;1.58;;
20857;SDS011;10589;53.636;10.012;2023-07-08T07:49:36;4.03;;;1.85;;
20857;SDS011;10589;53.636;10.012;2023-07-08T07:52:03;4.25;;;2.05;;
20857;SDS011;10589;53.636;10.012;2023-07-08T07:54:28;3.50;;;2.00;;
20857;SDS011;10589;53.636;10.012;2023-07-08T07:56:54;4.13;;;1.95;;
20857;SDS011;10589;53.636;10.012;2023-07-08T07:59:21;5.10;;;2.00;;
20857;SDS011;10589;53.636;10.012;2023-07-08T08:01:46;3.78;;;1.98;;
20857;SDS011;10589;53.636;10.012;2023-07-08T08:04:12;4.55;;;1.98;;
20857;SDS011;10589;53.636;10.012;2023-07-08T08:06:38;2.38;;;1.70;;
20857;SDS011;10589;53.636;10.012;2023-07-08T08:09:04;4.85;;;2.00;;
20857;SDS011;10589;53.636;10.012;2023-07-08T08:11:31;4.55;;;2.10;;
20857;SDS011;10589;53.636;10.012;2023-07-08T08:13:57;5.32;;;2.13;;
20857;SDS011;10589;53.636;10.012;2023-07-08T08:16:22;2.42;;;2.08;;
20857;SDS011;10589;53.636;10.012;2023-07-08T08:18:48;2.40;;;1.70;;
20857;SDS011;10589;53.636;10.012;2023-07-08T08:21:14;2.80;;;1.95;;
20857;SDS011;10589;53.636;10.012;2023-07-08T08:23:39;3.63;;;1.55;;
20857;SDS011;10589;53.636;10.012;2023-07-08T08:26:05;2.50;;;1.90;;
20857;SDS011;10589;53.636;10.012;2023-07-08T08:28:31;2.92;;;1.90;;
20857;SDS011;10589;53.636;10.012;2023-07-08T08:30:56;6.03;;;2.00;;
20857;SDS011;10589;53.636;10.012;2023-07-08T08:33:22;3.13;;;1.65;;
20857;SDS011;10589;53.636;10.012;2023-07-08T08:35:48;4.18;;;2.20;;
20857;SDS011;10589;53.636;10.012;2023-07-08T08:38:13;3.40;;;1.75;;
20857;SDS011;10589;53.636;10.012;2023-07-08T08:40:40;3.75;;;1.77;;
20857;SDS011;10589;53.636;10.012;2023-07-08T08:43:09;2.80;;;1.90;;
20857;SDS011;10589;53.636;10.012;2023-07-08T08:48:47;2.20;;;1.95;;
20857;SDS011;10589;53.636;10.012;2023-07-08T08:51:37;1.92;;;1.63;;
20857;SDS011;10589;53.636;10.012;2023-07-08T08:54:03;1.83;;;1.70;;
20857;SDS011;10589;53.636;10.012;2023-07-08T08:56:29;3.65;;;2.17;;
20857;SDS011;10589;53.636;10.012;2023-07-08T09:01:53;3.55;;;1.85;;
20857;SDS011;10589;53.636;10.012;2023-07-08T09:04:25;3.92;;;1.90;;
20857;SDS011;10589;53.636;10.012;2023-07-08T09:07:00;5.43;;;1.98;;
20857;SDS011;10589;53.636;10.012;2023-07-08T09:09:33;2.20;;;1.70;;
20857;SDS011;10589;53.636;10.012;2023-07-08T09:12:05;3.38;;;2.03;;
20857;SDS011;10589;53.636;10.012;2023-07-08T09:14:36;3.70;;;1.73;;
20857;SDS011;10589;53.636;10.012;2023-07-08T09:19:52;4.78;;;1.83;;
20857;SDS011;10589;53.636;10.012;2023-07-08T09:22:43;4.50;;;1.77;;
20857;SDS011;10589;53.636;10.012;2023-07-08T09:25:30;2.17;;;1.33;;
20857;SDS011;10589;53.636;10.012;2023-07-08T09:28:04;2.92;;;1.98;;
20857;SDS011;10589;53.636;10.012;2023-07-08T09:30:29;3.05;;;1.63;;
20857;SDS011;10589;53.636;10.012;2023-07-08T09:32:56;2.80;;;1.80;;
20857;SDS011;10589;53.636;10.012;2023-07-08T09:35:37;4.00;;;2.08;;
20857;SDS011;10589;53.636;10.012;2023-07-08T09:38:09;4.00;;;1.88;;
20857;SDS011;10589;53.636;10.012;2023-07-08T09:40:39;4.22;;;1.83;;
20857;SDS011;10589;53.636;10.012;2023-07-08T09:43:15;2.72;;;1.80;;
20857;SDS011;10589;53.636;10.012;2023-07-08T09:45:55;2.97;;;1.77;;
20857;SDS011;10589;53.636;10.012;2023-07-08T09:48:26;3.67;;;1.88;;
20857;SDS011;10589;53.636;10.012;2023-07-08T09:50:53;2.58;;;1.80;;
20857;SDS011;10589;53.636;10.012;2023-07-08T09:53:21;2.80;;;1.70;;
20857;SDS011;10589;53.636;10.012;2023-07-08T09:55:46;3.03;;;1.85;;
20857;SDS011;10589;53.636;10.012;2023-07-08T09:58:25;4.43;;;1.83;;
20857;SDS011;10589;53.636;10.012;2023-07-08T10:00:55;3.15;;;2.10;;
20857;SDS011;10589;53.636;10.012;2023-07-08T10:03:25;2.40;;;1.95;;
20857;SDS011;10589;53.636;10.012;2023-07-08T10:05:54;2.50;;;1.75;;
20857;SDS011;10589;53.636;10.012;2023-07-08T10:08:23;3.70;;;1.73;;
20857;SDS011;10589;53.636;10.012;2023-07-08T10:11:02;2.13;;;1.70;;
20857;SDS011;10589;53.636;10.012;2023-07-08T10:13:49;2.60;;;1.80;;
20857;SDS011;10589;53.636;10.012;2023-07-08T10:16:23;5.68;;;2.17;;
20857;SDS011;10589;53.636;10.012;2023-07-08T10:18:53;2.95;;;1.85;;
20857;SDS011;10589;53.636;10.012;2023-07-08T10:26:31;6.43;;;2.28;;
20857;SDS011;10589;53.636;10.012;2023-07-08T10:40:48;10.63;;;1.92;;
20857;SDS011;10589;53.636;10.012;2023-07-08T10:43:36;4.28;;;2.08;;
20857;SDS011;10589;53.636;10.012;2023-07-08T10:49:14;1.83;;;1.65;;
20857;SDS011;10589;53.636;10.012;2023-07-08T10:55:11;3.30;;;1.73;;
20857;SDS011;10589;53.636;10.012;2023-07-08T10:57:53;4.63;;;1.98;;
20857;SDS011;10589;53.636;10.012;2023-07-08T11:00:41;5.32;;;2.08;;
20857;SDS011;10589;53.636;10.012;2023-07-08T11:03:31;3.75;;;2.10;;
20857;SDS011;10589;53.636;10.012;2023-07-08T11:06:12;2.13;;;1.90;;
20857;SDS011;10589;53.636;10.012;2023-07-08T11:08:47;5.82;;;2.20;;
20857;SDS011;10589;53.636;10.012;2023-07-08T11:11:34;3.25;;;1.80;;
20857;SDS011;10589;53.636;10.012;2023-07-08T11:14:11;4.93;;;1.70;;
20857;SDS011;10589;53.636;10.012;2023-07-08T11:16:46;2.80;;;2.00;;
20857;SDS011;10589;53.636;10.012;2023-07-08T11:19:25;2.28;;;1.88;;
20857;SDS011;10589;53.636;10.012;2023-07-08T11:21:58;3.20;;;2.08;;
20857;SDS011;10589;53.636;10.012;2023-07-08T11:27:02;5.50;;;1.92;;
20857;SDS011;10589;53.636;10.012;2023-07-08T11:32:08;5.50;;;2.42;;
20857;SDS011;10589;53.636;10.012;2023-07-08T11:34:41;4.78;;;1.98;;
20857;SDS011;10589;53.636;10.012;2023-07-08T11:37:09;5.20;;;2.00;;
20857;SDS011;10589;53.636;10.012;2023-07-08T11:39:44;4.43;;;1.77;;
20857;SDS011;10589;53.636;10.012;2023-07-08T11:42:21;3.05;;;1.70;;
20857;SDS011;10589;53.636;10.012;2023-07-08T11:44:53;3.90;;;1.58;;
20857;SDS011;10589;53.636;10.012;2023-07-08T11:50:14;3.80;;;1.80;;
20857;SDS011;10589;53.636;10.012;2023-07-08T11:53:07;5.22;;;2.00;;
20857;SDS011;10589;53.636;10.012;2023-07-08T11:55:44;3.53;;;2.10;;
20857;SDS011;10589;53.636;10.012;2023-07-08T11:58:21;3.25;;;2.08;;
20857;SDS011;10589;53.636;10.012;2023-07-08T12:03:40;5.07;;;2.40;;
20857;SDS011;10589;53.636;10.012;2023-07-08T12:08:57;2.53;;;2.00;;
20857;SDS011;10589;53.636;10.012;2023-07-08T12:11:28;4.53;;;1.85;;
20857;SDS011;10589;53.636;10.012;2023-07-08T12:13:58;3.90;;;1.88;;
20857;SDS011;10589;53.636;10.012;2023-07-08T12:16:25;3.05;;;1.85;;
20857;SDS011;10589;53.636;10.012;2023-07-08T12:18:53;2.17;;;1.90;;
20857;SDS011;10589;53.636;10.012;2023-07-08T12:21:22;3.88;;;1.77;;
20857;SDS011;10589;53.636;10.012;2023-07-08T12:23:48;3.40;;;2.20;;
20857;SDS011;10589;53.636;10.012;2023-07-08T12:26:14;2.30;;;1.85;;
20857;SDS011;10589;53.636;10.012;2023-07-08T12:28:41;4.05;;;1.35;;
20857;SDS011;10589;53.636;10.012;2023-07-08T12:31:15;4.72;;;2.10;;
20857;SDS011;10589;53.636;10.012;2023-07-08T12:33:43;3.17;;;2.00;;
20857;SDS011;10589;53.636;10.012;2023-07-08T12:36:10;6.25;;;1.98;;
20857;SDS011;10589;53.636;10.012;2023-07-08T12:38:43;3.55;;;2.28;;
20857;SDS011;10589;53.636;10.012;2023-07-08T12:41:17;3.13;;;2.00;;
20857;SDS011;10589;53.636;10.012;2023-07-08T12:43:45;3.45;;;2.25;;
20857;SDS011;10589;53.636;10.012;2023-07-08T12:46:12;6.70;;;2.05;;
20857;SDS011;10589;53.636;10.012;2023-07-08T12:48:39;2.45;;;1.95;;
20857;SDS011;10589;53.636;10.012;2023-07-08T12:51:06;3.50;;;1.88;;
20857;SDS011;10589;53.636;10.012;2023-07-08T12:53:36;3.42;;;1.88;;
20857;SDS011;10589;53.636;10.012;2023-07-08T12:56:01;4.38;;;1.90;;
20857;SDS011;10589;53.636;10.012;2023-07-08T12:58:29;6.35;;;1.67;;
20857;SDS011;10589;53.636;10.012;2023-07-08T13:01:00;3.88;;;1.83;;
20857;SDS011;10589;53.636;10.012;2023-07-08T13:03:29;4.53;;;1.90;;
20857;SDS011;10589;53.636;10.012;2023-07-08T13:05:58;2.40;;;1.80;;
20857;SDS011;10589;53.636;10.012;2023-07-08T13:08:27;1.92;;;1.60;;
20857;SDS011;10589;53.636;10.012;2023-07-08T13:10:58;2.78;;;1.70;;
20857;SDS011;10589;53.636;10.012;2023-07-08T13:13:28;5.82;;;1.70;;
20857;SDS011;10589;53.636;10.012;2023-07-08T13:15:57;1.58;;;1.40;;
20857;SDS011;10589;53.636;10.012;2023-07-08T13:18:33;4.75;;;2.03;;
20857;SDS011;10589;53.636;10.012;2023-07-08T13:21:01;2.67;;;1.70;;
20857;SDS011;10589;53.636;10.012;2023-07-08T13:23:29;2.63;;;1.77;;
20857;SDS011;10589;53.636;10.012;2023-07-08T13:25:56;2.42;;;1.80;;
20857;SDS011;10589;53.636;10.012;2023-07-08T13:28:26;2.42;;;1.92;;
20857;SDS011;10589;53.636;10.012;2023-07-08T13:33:21;2.60;;;1.75;;
20857;SDS011;10589;53.636;10.012;2023-07-08T13:35:48;5.95;;;1.85;;
20857;SDS011;10589;53.636;10.012;2023-07-08T13:38:17;3.58;;;1.80;;
20857;SDS011;10589;53.636;10.012;2023-07-08T13:40:46;6.32;;;2.10;;
20857;SDS011;10589;53.636;10.012;2023-07-08T13:43:14;7.03;;;2.88;;
20857;SDS011;10589;53.636;10.012;2023-07-08T13:45:43;2.53;;;1.95;;
20857;SDS011;10589;53.636;10.012;2023-07-08T13:50:53;7.20;;;2.35;;
20857;SDS011;10589;53.636;10.012;2023-07-08T13:53:24;2.90;;;1.80;;
20857;SDS011;10589;53.636;10.012;2023-07-08T13:56:17;6.53;;;1.90;;
20857;SDS011;10589;53.636;10.012;2023-07-08T13:58:46;3.63;;;2.08;;
20857;SDS011;10589;53.636;10.012;2023-07-08T14:01:18;3.90;;;1.60;;
20857;SDS011;10589;53.636;10.012;2023-07-08T14:03:46;3.95;;;1.75;;
20857;SDS011;10589;53.636;10.012;2023-07-08T14:06:13;3.58;;;1.80;;
20857;SDS011;10589;53.636;10.012;2023-07-08T14:08:44;2.90;;;2.00;;
20857;SDS011;10589;53.636;10.012;2023-07-08T14:11:10;2.28;;;1.70;;
20857;SDS011;10589;53.636;10.012;2023-07-08T14:13:35;3.45;;;2.17;;
20857;SDS011;10589;53.636;10.012;2023-07-08T14:16:01;4.70;;;1.92;;
20857;SDS011;10589;53.636;10.012;2023-07-08T14:18:30;2.28;;;1.85;;
20857;SDS011;10589;53.636;10.012;2023-07-08T14:20:56;2.00;;;1.80;;
20857;SDS011;10589;53.636;10.012;2023-07-08T14:23:23;2.30;;;1.95;;
20857;SDS011;10589;53.636;10.012;2023-07-08T14:25:49;2.33;;;1.92;;
20857;SDS011;10589;53.636;10.012;2023-07-08T14:28:14;3.50;;;2.17;;
20857;SDS011;10589;53.636;10.012;2023-07-08T14:30:44;3.30;;;2.05;;
20857;SDS011;10589;53.636;10.012;2023-07-08T14:33:12;5.30;;;2.00;;
20857;SDS011;10589;53.636;10.012;2023-07-08T14:35:38;3.38;;;1.95;;
20857;SDS011;10589;53.636;10.012;2023-07-08T14:38:12;6.18;;;1.98;;
20857;SDS011;10589;53.636;10.012;2023-07-08T14:40:39;3.97;;;1.90;;
20857;SDS011;10589;53.636;10.012;2023-07-08T14:45:53;2.53;;;2.00;;
20857;SDS011;10589;53.636;10.012;2023-07-08T14:48:21;4.70;;;2.20;;
20857;SDS011;10589;53.636;10.012;2023-07-08T14:50:47;2.78;;;2.20;;
20857;SDS011;10589;53.636;10.012;2023-07-08T14:53:13;3.22;;;1.85;;
20857;SDS011;10589;53.636;10.012;2023-07-08T14:55:40;6.45;;;2.40;;
20857;SDS011;10589;53.636;10.012;2023-07-08T14:58:07;5.22;;;1.80;;
20857;SDS011;10589;53.636;10.012;2023-07-08T15:00:34;2.88;;;2.38;;
20857;SDS011;10589;53.636;10.012;2023-07-08T15:03:00;4.78;;;2.65;;
20857;SDS011;10589;53.636;10.012;2023-07-08T15:05:26;3.25;;;1.85;;
20857;SDS011;10589;53.636;10.012;2023-07-08T15:07:54;4.05;;;2.20;;
20857;SDS011;10589;53.636;10.012;2023-07-08T15:10:23;2.85;;;2.20;;
20857;SDS011;10589;53.636;10.012;2023-07-08T15:12:50;3.20;;;2.40;;
20857;SDS011;10589;53.636;10.012;2023-07-08T15:15:18;3.65;;;2.20;;
20857;SDS011;10589;53.636;10.012;2023-07-08T15:17:51;5.60;;;2.03;;
20857;SDS011;10589;53.636;10.012;2023-07-08T15:20:17;3.15;;;2.17;;
20857;SDS011;10589;53.636;10.012;2023-07-08T15:22:44;3.20;;;2.17;;
20857;SDS011;10589;53.636;10.012;2023-07-08T15:25:13;2.65;;;2.05;;
20857;SDS011;10589;53.636;10.012;2023-07-08T15:27:40;4.00;;;2.10;;
20857;SDS011;10589;53.636;10.012;2023-07-08T15:30:19;4.65;;;2.35;;
20857;SDS011;10589;53.636;10.012;2023-07-08T15:32:50;3.70;;;2.30;;
20857;SDS011;10589;53.636;10.012;2023-07-08T15:35:20;3.63;;;1.80;;
20857;SDS011;10589;53.636;10.012;2023-07-08T15:37:54;5.88;;;2.22;;
20857;SDS011;10589;53.636;10.012;2023-07-08T15:40:21;4.88;;;1.90;;
20857;SDS011;10589;53.636;10.012;2023-07-08T15:42:48;6.72;;;1.90;;
20857;SDS011;10589;53.636;10.012;2023-07-08T15:45:26;4.93;;;1.92;;
20857;SDS011;10589;53.636;10.012;2023-07-08T15:47:56;4.63;;;1.73;;
20857;SDS011;10589;53.636;10.012;2023-07-08T15:50:23;5.35;;;1.83;;
20857;SDS011;10589;53.636;10.012;2023-07-08T15:52:50;5.72;;;1.75;;
20857;SDS011;10589;53.636;10.012;2023-07-08T15:55:17;4.20;;;1.98;;
20857;SDS011;10589;53.636;10.012;2023-07-08T15:58:05;3.78;;;1.63;;
20857;SDS011;10589;53.636;10.012;2023-07-08T16:00:36;4.68;;;1.63;;
20857;SDS011;10589;53.636;10.012;2023-07-08T16:03:06;2.47;;;1.80;;
20857;SDS011;10589;53.636;10.012;2023-07-08T16:05:38;3.70;;;1.88;;
20857;SDS011;10589;53.636;10.012;2023-07-08T16:08:04;8.90;;;2.05;;
20857;SDS011;10589;53.636;10.012;2023-07-08T16:10:29;7.68;;;2.28;;
20857;SDS011;10589;53.636;10.012;2023-07-08T16:12:56;3.25;;;1.50;;
20857;SDS011;10589;53.636;10.012;2023-07-08T16:15:28;6.88;;;2.00;;
20857;SDS011;10589;53.636;10.012;2023-07-08T16:17:56;6.53;;;1.88;;
20857;SDS011;10589;53.636;10.012;2023-07-08T16:20:23;2.72;;;1.73;;
20857;SDS011;10589;53.636;10.012;2023-07-08T16:22:50;6.72;;;2.00;;
20857;SDS011;10589;53.636;10.012;2023-07-08T16:25:27;7.45;;;2.38;;
20857;SDS011;10589;53.636;10.012;2023-07-08T16:27:54;4.43;;;1.83;;
20857;SDS011;10589;53.636;10.012;2023-07-08T16:30:22;7.72;;;4.47;;
20857;SDS011;10589;53.636;10.012;2023-07-08T16:32:48;9.18;;;5.65;;
20857;SDS011;10589;53.636;10.012;2023-07-08T16:35:15;3.55;;;2.38;;
20857;SDS011;10589;53.636;10.012;2023-07-08T16:37:43;5.57;;;2.65;;
20857;SDS011;10589;53.636;10.012;2023-07-08T16:40:18;4.65;;;1.65;;
20857;SDS011;10589;53.636;10.012;2023-07-08T16:42:45;3.70;;;1.80;;
20857;SDS011;10589;53.636;10.012;2023-07-08T16:45:14;2.88;;;1.95;;
20857;SDS011;10589;53.636;10.012;2023-07-08T16:47:43;4.28;;;1.95;;
20857;SDS011;10589;53.636;10.012;2023-07-08T16:50:09;6.72;;;2.28;;
20857;SDS011;10589;53.636;10.012;2023-07-08T16:52:36;3.03;;;1.85;;
20857;SDS011;10589;53.636;10.012;2023-07-08T16:55:04;7.28;;;1.92;;
20857;SDS011;10589;53.636;10.012;2023-07-08T16:57:34;5.55;;;1.92;;
20857;SDS011;10589;53.636;10.012;2023-07-08T17:00:00;6.35;;;1.67;;
20857;SDS011;10589;53.636;10.012;2023-07-08T17:02:26;6.70;;;3.65;;
20857;SDS011;10589;53.636;10.012;2023-07-08T17:04:52;4.07;;;2.17;;
20857;SDS011;10589;53.636;10.012;2023-07-08T17:07:19;3.65;;;1.50;;
20857;SDS011;10589;53.636;10.012;2023-07-08T17:09:45;7.15;;;1.80;;
20857;SDS011;10589;53.636;10.012;2023-07-08T17:12:10;8.00;;;2.33;;
20857;SDS011;10589;53.636;10.012;2023-07-08T17:14:36;5.07;;;2.30;;
20857;SDS011;10589;53.636;10.012;2023-07-08T17:17:03;4.88;;;1.90;;
20857;SDS011;10589;53.636;10.012;2023-07-08T17:19:30;7.97;;;3.78;;
20857;SDS011;10589;53.636;10.012;2023-07-08T17:21:56;3.63;;;1.63;;
20857;SDS011;10589;53.636;10.012;2023-07-08T17:24:22;7.10;;;1.98;;
20857;SDS011;10589;53.636;10.012;2023-07-08T17:26:49;5.45;;;1.90;;
20857;SDS011;10589;53.636;10.012;2023-07-08T17:29:14;5.75;;;1.83;;
20857;SDS011;10589;53.636;10.012;2023-07-08T17:31:40;6.10;;;2.00;;
20857;SDS011;10589;53.636;10.012;2023-07-08T17:34:10;2.95;;;1.83;;
20857;SDS011;10589;53.636;10.012;2023-07-08T17:36:43;7.63;;;1.80;;
20857;SDS011;10589;53.636;10.012;2023-07-08T17:39:09;3.25;;;1.77;;
20857;SDS011;10589;53.636;10.012;2023-07-08T17:41:34;4.05;;;1.88;;
20857;SDS011;10589;53.636;10.012;2023-07-08T17:44:00;7.60;;;2.20;;
20857;SDS011;10589;53.636;10.012;2023-07-08T17:46:26;7.72;;;2.00;;
20857;SDS011;10589;53.636;10.012;2023-07-08T17:48:56;5.20;;;2.00;;
20857;SDS011;10589;53.636;10.012;2023-07-08T17:51:23;5.25;;;1.90;;
20857;SDS011;10589;53.636;10.012;2023-07-08T17:53:50;3.92;;;1.80;;
20857;SDS011;10589;53.636;10.012;2023-07-08T17:58:44;6.45;;;1.55;;
20857;SDS011;10589;53.636;10.012;2023-07-08T18:01:11;3.40;;;1.85;;
20857;SDS011;10589;53.636;10.012;2023-07-08T18:03:37;3.58;;;1.83;;
20857;SDS011;10589;53.636;10.012;2023-07-08T18:06:04;6.10;;;1.65;;
20857;SDS011;10589;53.636;10.012;2023-07-08T18:08:30;3.78;;;2.10;;
20857;SDS011;10589;53.636;10.012;2023-07-08T18:10:55;2.90;;;1.52;;
20857;SDS011;10589;53.636;10.012;2023-07-08T18:13:21;3.88;;;2.10;;
20857;SDS011;10589;53.636;10.012;2023-07-08T18:15:48;4.13;;;2.03;;
20857;SDS011;10589;53.636;10.012;2023-07-08T18:18:14;6.78;;;1.90;;
20857;SDS011;10589;53.636;10.012;2023-07-08T18:20:43;8.77;;;2.13;;
20857;SDS011;10589;53.636;10.012;2023-07-08T18:23:17;3.08;;;2.08;;
20857;SDS011;10589;53.636;10.012;2023-07-08T18:25:45;5.22;;;2.22;;
20857;SDS011;10589;53.636;10.012;2023-07-08T18:28:10;6.68;;;2.03;;
20857;SDS011;10589;53.636;10.012;2023-07-08T18:30:38;4.25;;;2.17;;
20857;SDS011;10589;53.636;10.012;2023-07-08T18:33:09;4.72;;;2.10;;
20857;SDS011;10589;53.636;10.012;2023-07-08T18:35:37;5.28;;;1.90;;
20857;SDS011;10589;53.636;10.012;2023-07-08T18:38:03;5.07;;;1.90;;
20857;SDS011;10589;53.636;10.012;2023-07-08T18:40:30;4.53;;;2.15;;
20857;SDS011;10589;53.636;10.012;2023-07-08T18:43:02;6.10;;;1.60;;
20857;SDS011;10589;53.636;10.012;2023-07-08T18:45:31;3.83;;;1.80;;
20857;SDS011;10589;53.636;10.012;2023-07-08T18:47:57;5.18;;;2.00;;
20857;SDS011;10589;53.636;10.012;2023-07-08T18:50:22;4.40;;;2.00;;
20857;SDS011;10589;53.636;10.012;2023-07-08T18:52:51;5.50;;;1.98;;
20857;SDS011;10589;53.636;10.012;2023-07-08T18:55:19;6.93;;;1.80;;
20857;SDS011;10589;53.636;10.012;2023-07-08T18:57:47;2.78;;;1.88;;
20857;SDS011;10589;53.636;10.012;2023-07-08T19:00:14;4.88;;;2.00;;
20857;SDS011;10589;53.636;10.012;2023-07-08T19:05:17;3.35;;;2.10;;
20857;SDS011;10589;53.636;10.012;2023-07-08T19:07:43;7.32;;;1.90;;
20857;SDS011;10589;53.636;10.012;2023-07-08T19:10:12;5.95;;;1.92;;
20857;SDS011;10589;53.636;10.012;2023-07-08T19:12:43;3.13;;;2.00;;
20857;SDS011;10589;53.636;10.012;2023-07-08T19:15:31;4.40;;;2.10;;
20857;SDS011;10589;53.636;10.012;2023-07-08T19:17:57;6.15;;;2.10;;
20857;SDS011;10589;53.636;10.012;2023-07-08T19:20:31;3.13;;;2.05;;
20857;SDS011;10589;53.636;10.012;2023-07-08T19:22:59;3.88;;;1.98;;
20857;SDS011;10589;53.636;10.012;2023-07-08T19:25:28;4.88;;;1.85;;
20857;SDS011;10589;53.636;10.012;2023-07-08T19:27:56;5.03;;;1.95;;